St David — 2BHL9 — position and weather

sailwx.info

Track history (hours):
 
Tides and Currents Weather Stations Pressure Air Temp Water Temp Dewpoint Dewpoint Depression Visibility Wind Speed Wind Dir Waves Ship Positions

St David

Last reported at 2016-Apr-30 12:23 UTC. Time now 2016-May-03 08:47 UTC.
Position N 44°08' E 008°16'.

Length 60 m; draft 3.4 m.

Type: Pleasure craft. MMSI: 235066164.

Date/timePositionNaut miles runAvg speedWind from/ knotsBaromVisibWave heightAir tempDewpointWater temp
2016-Apr-30 12:23N 44°08' E 008°16'0 0.0
2016-Apr-30 11:32N 44°08' E 008°16'0 0.0
2016-Apr-30 10:23N 44°08' E 008°16'0 0.0
2016-Apr-29 17:11N 44°08' E 008°16'0 0.0
2016-Apr-29 16:29N 44°08' E 008°16'45 6.2
2016-Apr-29 09:12N 43°39' E 007°28'812.2
2016-Apr-29 08:31N 43°37' E 007°17'7 6.7
2016-Apr-29 07:31N 43°35' E 007°08'0 0.0
2016-Apr-29 06:31N 43°35' E 007°08'0 0.0
2016-Apr-29 05:31N 43°35' E 007°08'0 0.0
2016-Apr-29 04:31N 43°35' E 007°08'0 0.0
2016-Apr-29 03:31N 43°35' E 007°08'0 0.0
2016-Apr-29 02:31N 43°35' E 007°08'0 0.0
2016-Apr-29 01:31N 43°35' E 007°08'0 0.0
2016-Apr-29 00:31N 43°35' E 007°08'0 0.0
2016-Apr-28 23:31N 43°35' E 007°08'0 0.0
2016-Apr-28 22:31N 43°35' E 007°08'0 0.0
2016-Apr-28 21:31N 43°35' E 007°08'0 0.0
2016-Apr-28 20:31N 43°35' E 007°08'0 0.0
2016-Apr-28 19:31N 43°35' E 007°08'0 0.0
2016-Apr-28 18:31N 43°35' E 007°08'0 0.0
2016-Apr-28 17:31N 43°35' E 007°08'0 0.0
2016-Apr-28 16:31N 43°35' E 007°08'0 0.0
2016-Apr-28 15:31N 43°35' E 007°08'0 0.0
2016-Apr-28 14:31N 43°35' E 007°08'0 0.0
2016-Apr-28 13:31N 43°35' E 007°08'0 0.0
2016-Apr-28 12:25N 43°35' E 007°08'0 0.0
2016-Apr-28 11:31N 43°35' E 007°08'0 0.0
2016-Apr-28 10:31N 43°35' E 007°08'0 0.0
2016-Apr-28 09:31N 43°35' E 007°08'0 0.0
2016-Apr-28 08:31N 43°35' E 007°08'0 0.0
2016-Apr-28 07:31N 43°35' E 007°08'0 0.0
2016-Apr-28 06:31N 43°35' E 007°08'0 0.0
2016-Apr-28 05:31N 43°35' E 007°08'0 0.0
2016-Apr-28 04:25N 43°35' E 007°08'0 0.0
2016-Apr-28 03:31N 43°35' E 007°08'0 0.0
2016-Apr-28 02:31N 43°35' E 007°08'0 0.0
2016-Apr-28 01:31N 43°35' E 007°08'0 0.0
2016-Apr-28 00:31N 43°35' E 007°08'0 0.0
2016-Apr-27 23:25N 43°35' E 007°08'0 0.0
2016-Apr-27 22:31N 43°35' E 007°08'0 0.0
2016-Apr-27 21:25N 43°35' E 007°08'0 0.0
2016-Apr-27 20:25N 43°35' E 007°08'0 0.0
2016-Apr-27 19:31N 43°35' E 007°08'0 0.0
2016-Apr-27 18:31N 43°35' E 007°08'0 0.0
2016-Apr-27 17:25N 43°35' E 007°08'0 0.0
2016-Apr-27 16:31N 43°35' E 007°08'0 0.0
2016-Apr-27 15:31N 43°35' E 007°08'0 0.0
2016-Apr-27 14:31N 43°35' E 007°08'0 0.0
2016-Apr-27 13:19N 43°35' E 007°08'0 0.0
2016-Apr-27 12:31N 43°35' E 007°08'0 0.0
2016-Apr-27 11:31N 43°35' E 007°08'0 0.0
2016-Apr-27 10:33N 43°35' E 007°08'7 6.6
2016-Apr-27 09:33N 43°30' E 007°02'3 0.1
2016-Apr-26 08:13N 43°33' E 007°01'0 0.5
2016-Apr-26 07:29N 43°32' E 007°01'0 0.0
2016-Apr-26 06:17N 43°32' E 007°01'0 0.0
2016-Apr-26 05:17N 43°32' E 007°01'0 0.0
2016-Apr-26 04:29N 43°32' E 007°01'0 0.0
2016-Apr-26 03:17N 43°32' E 007°01'0 0.0
2016-Apr-26 02:29N 43°32' E 007°01'0 0.0
2016-Apr-26 01:29N 43°32' E 007°01'0 0.0
2016-Apr-26 00:23N 43°32' E 007°01'0 0.0
2016-Apr-25 23:11N 43°32' E 007°01'0 0.1
2016-Apr-25 22:23N 43°32' E 007°01'0 0.0
2016-Apr-25 21:29N 43°32' E 007°01'0 0.0
2016-Apr-25 19:11N 43°32' E 007°01'0 0.0
2016-Apr-25 18:29N 43°32' E 007°01'0 0.0
2016-Apr-25 17:23N 43°32' E 007°01'0 0.1
2016-Apr-25 16:23N 43°32' E 007°01'0 0.0
2016-Apr-25 15:17N 43°32' E 007°01'0 0.0
2016-Apr-25 14:23N 43°32' E 007°01'0 0.0
2016-Apr-25 13:29N 43°32' E 007°01'0 0.0
2016-Apr-25 11:23N 43°32' E 007°01'0 0.0
2016-Apr-25 10:05N 43°32' E 007°01'0 0.0
2016-Apr-25 07:17N 43°32' E 007°01'0 0.0
2016-Apr-25 06:29N 43°32' E 007°01'0 0.0
2016-Apr-25 05:29N 43°32' E 007°01'0 0.0
2016-Apr-25 04:17N 43°32' E 007°01'0 0.0
2016-Apr-25 03:29N 43°32' E 007°01'0 0.0
2016-Apr-25 02:17N 43°32' E 007°01'0 0.0
2016-Apr-25 01:23N 43°32' E 007°01'0 0.0
2016-Apr-25 00:29N 43°32' E 007°01'0 0.0
2016-Apr-24 23:29N 43°32' E 007°01'0 0.0
2016-Apr-24 22:17N 43°32' E 007°01'0 0.0
2016-Apr-24 21:23N 43°32' E 007°01'0 0.1
2016-Apr-24 20:17N 43°32' E 007°01'0 0.0
2016-Apr-24 19:11N 43°32' E 007°01'0 0.0
2016-Apr-24 18:29N 43°32' E 007°01'0 0.0
2016-Apr-24 17:29N 43°32' E 007°01'0 0.1
2016-Apr-24 16:23N 43°32' E 007°01'0 0.0
2016-Apr-24 15:29N 43°32' E 007°01'0 0.0
2016-Apr-24 14:29N 43°32' E 007°01'0 0.0
2016-Apr-24 13:29N 43°32' E 007°01'0 0.0
2016-Apr-24 10:11N 43°32' E 007°01'0 0.0
2016-Apr-24 08:29N 43°32' E 007°01'0 0.0
2016-Apr-24 07:29N 43°32' E 007°01'0 0.0
2016-Apr-24 06:29N 43°32' E 007°01'0 0.0
2016-Apr-24 05:29N 43°32' E 007°01'0 0.2
2016-Apr-24 04:32N 43°32' E 007°01'22511.2
2016-Apr-23 08:25N 40°49' E 003°32'1213.4
2016-Apr-23 07:33N 40°41' E 003°20'1313.1
2016-Apr-23 06:33N 40°32' E 003°08'1313.1
2016-Apr-23 05:33N 40°23' E 002°55'1413.6
2016-Apr-23 04:33N 40°14' E 002°42'1414.1
2016-Apr-23 03:33N 40°05' E 002°28'1414.4
2016-Apr-23 02:33N 39°55' E 002°14'2914.0
2016-Apr-23 00:28N 39°36' E 001°46'1314.3
2016-Apr-22 23:33N 39°27' E 001°33'1513.8
2016-Apr-22 22:27N 39°17' E 001°18'12013.1
2016-Apr-22 13:18N 37°40' W 000°12'912.3
2016-Apr-22 12:33N 37°32' W 000°18'256 5.6
2016-Apr-20 15:14N 36°04' W 005°18'812.2
2016-Apr-20 14:33N 35°58' W 005°25'  
Track history (hours):
 
Tides and Currents Weather Stations Pressure Air Temp Water Temp Dewpoint Dewpoint Depression Visibility Wind Speed Wind Dir Waves Ship Positions

St David

Last reported at 2016-Apr-30 12:23 UTC. Time now 2016-May-03 08:47 UTC.
Position N 44°08' E 008°16'.

Length 60 m; draft 3.4 m.

Type: Pleasure craft. MMSI: 235066164.

Date/timePositionNaut miles runAvg speedWind from/ knotsBaromVisibWave heightAir tempDewpointWater temp
2016-Apr-30 12:23N 44°08' E 008°16'0 0.0
2016-Apr-30 11:32N 44°08' E 008°16'0 0.0
2016-Apr-30 10:23N 44°08' E 008°16'0 0.0
2016-Apr-29 17:11N 44°08' E 008°16'0 0.0
2016-Apr-29 16:29N 44°08' E 008°16'45 6.2
2016-Apr-29 09:12N 43°39' E 007°28'812.2
2016-Apr-29 08:31N 43°37' E 007°17'7 6.7
2016-Apr-29 07:31N 43°35' E 007°08'0 0.0
2016-Apr-29 06:31N 43°35' E 007°08'0 0.0
2016-Apr-29 05:31N 43°35' E 007°08'0 0.0
2016-Apr-29 04:31N 43°35' E 007°08'0 0.0
2016-Apr-29 03:31N 43°35' E 007°08'0 0.0
2016-Apr-29 02:31N 43°35' E 007°08'0 0.0
2016-Apr-29 01:31N 43°35' E 007°08'0 0.0
2016-Apr-29 00:31N 43°35' E 007°08'0 0.0
2016-Apr-28 23:31N 43°35' E 007°08'0 0.0
2016-Apr-28 22:31N 43°35' E 007°08'0 0.0
2016-Apr-28 21:31N 43°35' E 007°08'0 0.0
2016-Apr-28 20:31N 43°35' E 007°08'0 0.0
2016-Apr-28 19:31N 43°35' E 007°08'0 0.0
2016-Apr-28 18:31N 43°35' E 007°08'0 0.0
2016-Apr-28 17:31N 43°35' E 007°08'0 0.0
2016-Apr-28 16:31N 43°35' E 007°08'0 0.0
2016-Apr-28 15:31N 43°35' E 007°08'0 0.0
2016-Apr-28 14:31N 43°35' E 007°08'0 0.0
2016-Apr-28 13:31N 43°35' E 007°08'0 0.0
2016-Apr-28 12:25N 43°35' E 007°08'0 0.0
2016-Apr-28 11:31N 43°35' E 007°08'0 0.0
2016-Apr-28 10:31N 43°35' E 007°08'0 0.0
2016-Apr-28 09:31N 43°35' E 007°08'0 0.0
2016-Apr-28 08:31N 43°35' E 007°08'0 0.0
2016-Apr-28 07:31N 43°35' E 007°08'0 0.0
2016-Apr-28 06:31N 43°35' E 007°08'0 0.0
2016-Apr-28 05:31N 43°35' E 007°08'0 0.0
2016-Apr-28 04:25N 43°35' E 007°08'0 0.0
2016-Apr-28 03:31N 43°35' E 007°08'0 0.0
2016-Apr-28 02:31N 43°35' E 007°08'0 0.0
2016-Apr-28 01:31N 43°35' E 007°08'0 0.0
2016-Apr-28 00:31N 43°35' E 007°08'0 0.0
2016-Apr-27 23:25N 43°35' E 007°08'0 0.0
2016-Apr-27 22:31N 43°35' E 007°08'0 0.0
2016-Apr-27 21:25N 43°35' E 007°08'0 0.0
2016-Apr-27 20:25N 43°35' E 007°08'0 0.0
2016-Apr-27 19:31N 43°35' E 007°08'0 0.0
2016-Apr-27 18:31N 43°35' E 007°08'0 0.0
2016-Apr-27 17:25N 43°35' E 007°08'0 0.0
2016-Apr-27 16:31N 43°35' E 007°08'0 0.0
2016-Apr-27 15:31N 43°35' E 007°08'0 0.0
2016-Apr-27 14:31N 43°35' E 007°08'0 0.0
2016-Apr-27 13:19N 43°35' E 007°08'0 0.0
2016-Apr-27 12:31N 43°35' E 007°08'0 0.0
2016-Apr-27 11:31N 43°35' E 007°08'0 0.0
2016-Apr-27 10:33N 43°35' E 007°08'7 6.6
2016-Apr-27 09:33N 43°30' E 007°02'3 0.1
2016-Apr-26 08:13N 43°33' E 007°01'0 0.5
2016-Apr-26 07:29N 43°32' E 007°01'0 0.0
2016-Apr-26 06:17N 43°32' E 007°01'0 0.0
2016-Apr-26 05:17N 43°32' E 007°01'0 0.0
2016-Apr-26 04:29N 43°32' E 007°01'0 0.0
2016-Apr-26 03:17N 43°32' E 007°01'0 0.0
2016-Apr-26 02:29N 43°32' E 007°01'0 0.0
2016-Apr-26 01:29N 43°32' E 007°01'0 0.0
2016-Apr-26 00:23N 43°32' E 007°01'0 0.0
2016-Apr-25 23:11N 43°32' E 007°01'0 0.1
2016-Apr-25 22:23N 43°32' E 007°01'0 0.0
2016-Apr-25 21:29N 43°32' E 007°01'0 0.0
2016-Apr-25 19:11N 43°32' E 007°01'0 0.0
2016-Apr-25 18:29N 43°32' E 007°01'0 0.0
2016-Apr-25 17:23N 43°32' E 007°01'0 0.1
2016-Apr-25 16:23N 43°32' E 007°01'0 0.0
2016-Apr-25 15:17N 43°32' E 007°01'0 0.0
2016-Apr-25 14:23N 43°32' E 007°01'0 0.0
2016-Apr-25 13:29N 43°32' E 007°01'0 0.0
2016-Apr-25 11:23N 43°32' E 007°01'0 0.0
2016-Apr-25 10:05N 43°32' E 007°01'0 0.0
2016-Apr-25 07:17N 43°32' E 007°01'0 0.0
2016-Apr-25 06:29N 43°32' E 007°01'0 0.0
2016-Apr-25 05:29N 43°32' E 007°01'0 0.0
2016-Apr-25 04:17N 43°32' E 007°01'0 0.0
2016-Apr-25 03:29N 43°32' E 007°01'0 0.0
2016-Apr-25 02:17N 43°32' E 007°01'0 0.0
2016-Apr-25 01:23N 43°32' E 007°01'0 0.0
2016-Apr-25 00:29N 43°32' E 007°01'0 0.0
2016-Apr-24 23:29N 43°32' E 007°01'0 0.0
2016-Apr-24 22:17N 43°32' E 007°01'0 0.0
2016-Apr-24 21:23N 43°32' E 007°01'0 0.1
2016-Apr-24 20:17N 43°32' E 007°01'0 0.0
2016-Apr-24 19:11N 43°32' E 007°01'0 0.0
2016-Apr-24 18:29N 43°32' E 007°01'0 0.0
2016-Apr-24 17:29N 43°32' E 007°01'0 0.1
2016-Apr-24 16:23N 43°32' E 007°01'0 0.0
2016-Apr-24 15:29N 43°32' E 007°01'0 0.0
2016-Apr-24 14:29N 43°32' E 007°01'0 0.0
2016-Apr-24 13:29N 43°32' E 007°01'0 0.0
2016-Apr-24 10:11N 43°32' E 007°01'0 0.0
2016-Apr-24 08:29N 43°32' E 007°01'0 0.0
2016-Apr-24 07:29N 43°32' E 007°01'0 0.0
2016-Apr-24 06:29N 43°32' E 007°01'0 0.0
2016-Apr-24 05:29N 43°32' E 007°01'0 0.2
2016-Apr-24 04:32N 43°32' E 007°01'22511.2
2016-Apr-23 08:25N 40°49' E 003°32'1213.4
2016-Apr-23 07:33N 40°41' E 003°20'1313.1
2016-Apr-23 06:33N 40°32' E 003°08'1313.1
2016-Apr-23 05:33N 40°23' E 002°55'1413.6
2016-Apr-23 04:33N 40°14' E 002°42'1414.1
2016-Apr-23 03:33N 40°05' E 002°28'1414.4
2016-Apr-23 02:33N 39°55' E 002°14'2914.0
2016-Apr-23 00:28N 39°36' E 001°46'1314.3
2016-Apr-22 23:33N 39°27' E 001°33'1513.8
2016-Apr-22 22:27N 39°17' E 001°18'12013.1
2016-Apr-22 13:18N 37°40' W 000°12'912.3
2016-Apr-22 12:33N 37°32' W 000°18'256 5.6
2016-Apr-20 15:14N 36°04' W 005°18'812.2
2016-Apr-20 14:33N 35°58' W 005°25'  

Dump ship's entire track history